Cordoba, Spain
Current Conditions -  °F | °C
As of 8:00 PM on Friday 26 Dec 2014 (Local Time) from LEBA Reporting Station
Clear Clear  
Wind Chill: 45°   Ceiling: Unl
Heat Index: 45°   Visibility: 6mi
Dew Point: 41°   Wind: 0mph
Humidity: 87%   Direction: NA
Pressure: 30.42"   Gusts: NA
Location:  37.89°N, 4.78°W
Report Text: LEBA 261900Z 00000KT CAVOK 07/05 Q1030
Loading
Personal Weather Stations






























Interactive Weather Map New forecast layout! Learn more

10-Day Weather Forecast

Advertisements
Track Severe Weather on mobile